sensor_id;sensor_type;location;lat;lon;timestamp;temperature;humidity
16032;DHT22;8120;48.308;8.914;2023-02-15T00:01:53;-2.90;97.50
16032;DHT22;8120;48.308;8.914;2023-02-15T00:04:23;-2.90;97.30
16032;DHT22;8120;48.308;8.914;2023-02-15T00:07:15;-3.00;96.10
16032;DHT22;8120;48.308;8.914;2023-02-15T00:09:45;-3.00;97.60
16032;DHT22;8120;48.308;8.914;2023-02-15T00:12:13;-3.00;97.80
16032;DHT22;8120;48.308;8.914;2023-02-15T00:14:41;-2.90;98.20
16032;DHT22;8120;48.308;8.914;2023-02-15T00:17:09;-2.90;98.30
16032;DHT22;8120;48.308;8.914;2023-02-15T00:19:37;-2.90;98.50
16032;DHT22;8120;48.308;8.914;2023-02-15T00:22:04;-2.90;98.60
16032;DHT22;8120;48.308;8.914;2023-02-15T00:24:34;-3.00;97.30
16032;DHT22;8120;48.308;8.914;2023-02-15T00:27:01;-3.10;96.10
16032;DHT22;8120;48.308;8.914;2023-02-15T00:29:29;-3.30;95.00
16032;DHT22;8120;48.308;8.914;2023-02-15T00:31:58;-3.40;94.70
16032;DHT22;8120;48.308;8.914;2023-02-15T00:34:27;-3.50;93.90
16032;DHT22;8120;48.308;8.914;2023-02-15T00:36:55;-3.50;94.30
16032;DHT22;8120;48.308;8.914;2023-02-15T00:39:23;-3.50;95.30
16032;DHT22;8120;48.308;8.914;2023-02-15T00:41:52;-3.40;96.00
16032;DHT22;8120;48.308;8.914;2023-02-15T00:44:20;-3.40;96.10
16032;DHT22;8120;48.308;8.914;2023-02-15T00:46:48;-3.40;96.20
16032;DHT22;8120;48.308;8.914;2023-02-15T00:49:15;-3.30;96.40
16032;DHT22;8120;48.308;8.914;2023-02-15T00:51:43;-3.10;98.40
16032;DHT22;8120;48.308;8.914;2023-02-15T00:54:11;-2.90;98.10
16032;DHT22;8120;48.308;8.914;2023-02-15T00:56:39;-2.90;96.20
16032;DHT22;8120;48.308;8.914;2023-02-15T00:59:09;-3.10;93.90
16032;DHT22;8120;48.308;8.914;2023-02-15T01:01:36;-3.30;92.20
16032;DHT22;8120;48.308;8.914;2023-02-15T01:04:04;-3.50;91.10
16032;DHT22;8120;48.308;8.914;2023-02-15T01:06:32;-3.70;90.80
16032;DHT22;8120;48.308;8.914;2023-02-15T01:09:00;-3.80;91.50
16032;DHT22;8120;48.308;8.914;2023-02-15T01:11:28;-3.90;92.10
16032;DHT22;8120;48.308;8.914;2023-02-15T01:13:57;-3.80;93.50
16032;DHT22;8120;48.308;8.914;2023-02-15T01:16:27;-3.80;94.30
16032;DHT22;8120;48.308;8.914;2023-02-15T01:18:56;-3.70;94.40
16032;DHT22;8120;48.308;8.914;2023-02-15T01:21:25;-3.70;94.30
16032;DHT22;8120;48.308;8.914;2023-02-15T01:23:53;-3.60;95.40
16032;DHT22;8120;48.308;8.914;2023-02-15T01:26:21;-3.50;94.40
16032;DHT22;8120;48.308;8.914;2023-02-15T01:28:48;-3.50;92.90
16032;DHT22;8120;48.308;8.914;2023-02-15T01:31:18;-3.70;92.20
16032;DHT22;8120;48.308;8.914;2023-02-15T01:33:49;-3.70;92.70
16032;DHT22;8120;48.308;8.914;2023-02-15T01:36:17;-3.70;92.90
16032;DHT22;8120;48.308;8.914;2023-02-15T01:38:45;-3.70;92.60
16032;DHT22;8120;48.308;8.914;2023-02-15T01:41:13;-3.70;92.50
16032;DHT22;8120;48.308;8.914;2023-02-15T01:43:55;-3.70;92.10
16032;DHT22;8120;48.308;8.914;2023-02-15T01:46:27;-3.80;91.10
16032;DHT22;8120;48.308;8.914;2023-02-15T01:49:03;-3.90;91.10
16032;DHT22;8120;48.308;8.914;2023-02-15T01:51:36;-3.80;91.40
16032;DHT22;8120;48.308;8.914;2023-02-15T01:54:09;-3.70;92.90
16032;DHT22;8120;48.308;8.914;2023-02-15T01:56:39;-3.60;92.70
16032;DHT22;8120;48.308;8.914;2023-02-15T01:59:11;-3.50;91.50
16032;DHT22;8120;48.308;8.914;2023-02-15T02:01:42;-3.70;88.60
16032;DHT22;8120;48.308;8.914;2023-02-15T02:04:16;-3.80;87.90
16032;DHT22;8120;48.308;8.914;2023-02-15T02:06:46;-3.80;89.40
16032;DHT22;8120;48.308;8.914;2023-02-15T02:09:15;-3.80;89.00
16032;DHT22;8120;48.308;8.914;2023-02-15T02:11:45;-3.90;88.90
16032;DHT22;8120;48.308;8.914;2023-02-15T02:14:14;-4.00;88.50
16032;DHT22;8120;48.308;8.914;2023-02-15T02:16:48;-4.10;88.50
16032;DHT22;8120;48.308;8.914;2023-02-15T02:20:05;-4.10;89.50
16032;DHT22;8120;48.308;8.914;2023-02-15T02:23:08;-4.20;88.70
16032;DHT22;8120;48.308;8.914;2023-02-15T02:29:10;-3.90;93.30
16032;DHT22;8120;48.308;8.914;2023-02-15T02:31:52;-3.60;94.30
16032;DHT22;8120;48.308;8.914;2023-02-15T02:34:28;-3.60;93.40
16032;DHT22;8120;48.308;8.914;2023-02-15T02:36:59;-3.70;91.60
16032;DHT22;8120;48.308;8.914;2023-02-15T02:39:37;-3.90;90.60
16032;DHT22;8120;48.308;8.914;2023-02-15T02:42:12;-4.00;90.10
16032;DHT22;8120;48.308;8.914;2023-02-15T02:44:47;-4.20;89.20
16032;DHT22;8120;48.308;8.914;2023-02-15T02:47:19;-4.30;88.80
16032;DHT22;8120;48.308;8.914;2023-02-15T02:49:58;-4.50;89.10
16032;DHT22;8120;48.308;8.914;2023-02-15T02:52:41;-4.40;90.70
16032;DHT22;8120;48.308;8.914;2023-02-15T02:55:13;-4.30;91.40
16032;DHT22;8120;48.308;8.914;2023-02-15T02:57:47;-4.30;91.60
16032;DHT22;8120;48.308;8.914;2023-02-15T03:00:21;-4.20;90.40
16032;DHT22;8120;48.308;8.914;2023-02-15T03:02:54;-4.20;90.40
16032;DHT22;8120;48.308;8.914;2023-02-15T03:05:27;-4.10;90.50
16032;DHT22;8120;48.308;8.914;2023-02-15T03:07:58;-4.10;89.90
16032;DHT22;8120;48.308;8.914;2023-02-15T03:10:28;-4.10;89.80
16032;DHT22;8120;48.308;8.914;2023-02-15T03:12:57;-3.90;92.20
16032;DHT22;8120;48.308;8.914;2023-02-15T03:15:28;-3.70;91.60
16032;DHT22;8120;48.308;8.914;2023-02-15T03:18:18;-3.70;89.20
16032;DHT22;8120;48.308;8.914;2023-02-15T03:20:49;-3.90;87.40
16032;DHT22;8120;48.308;8.914;2023-02-15T03:23:22;-4.00;87.70
16032;DHT22;8120;48.308;8.914;2023-02-15T03:25:52;-4.20;88.20
16032;DHT22;8120;48.308;8.914;2023-02-15T03:28:25;-4.20;88.60
16032;DHT22;8120;48.308;8.914;2023-02-15T03:30:57;-4.30;88.00
16032;DHT22;8120;48.308;8.914;2023-02-15T03:33:26;-4.40;88.60
16032;DHT22;8120;48.308;8.914;2023-02-15T03:36:01;-4.30;89.80
16032;DHT22;8120;48.308;8.914;2023-02-15T03:38:33;-4.40;88.40
16032;DHT22;8120;48.308;8.914;2023-02-15T03:41:03;-4.50;88.60
16032;DHT22;8120;48.308;8.914;2023-02-15T03:43:45;-4.50;88.90
16032;DHT22;8120;48.308;8.914;2023-02-15T03:46:29;-4.50;89.40
16032;DHT22;8120;48.308;8.914;2023-02-15T03:49:02;-4.50;88.30
16032;DHT22;8120;48.308;8.914;2023-02-15T03:51:35;-4.60;88.90
16032;DHT22;8120;48.308;8.914;2023-02-15T03:54:07;-4.60;89.30
16032;DHT22;8120;48.308;8.914;2023-02-15T03:56:39;-4.60;90.60
16032;DHT22;8120;48.308;8.914;2023-02-15T03:59:07;-4.50;91.60
16032;DHT22;8120;48.308;8.914;2023-02-15T04:02:07;-4.40;92.70
16032;DHT22;8120;48.308;8.914;2023-02-15T04:04:39;-4.20;94.10
16032;DHT22;8120;48.308;8.914;2023-02-15T04:07:10;-4.20;91.20
16032;DHT22;8120;48.308;8.914;2023-02-15T04:09:38;-4.20;90.90
16032;DHT22;8120;48.308;8.914;2023-02-15T04:12:24;-4.20;91.60
16032;DHT22;8120;48.308;8.914;2023-02-15T04:14:51;-4.00;92.40
16032;DHT22;8120;48.308;8.914;2023-02-15T04:17:37;-4.10;89.50
16032;DHT22;8120;48.308;8.914;2023-02-15T04:20:06;-4.30;88.80
16032;DHT22;8120;48.308;8.914;2023-02-15T04:22:53;-4.40;88.80
16032;DHT22;8120;48.308;8.914;2023-02-15T04:25:38;-4.50;89.20
16032;DHT22;8120;48.308;8.914;2023-02-15T04:28:06;-4.60;89.00
16032;DHT22;8120;48.308;8.914;2023-02-15T04:30:34;-4.60;89.10
16032;DHT22;8120;48.308;8.914;2023-02-15T04:33:02;-4.70;89.20
16032;DHT22;8120;48.308;8.914;2023-02-15T04:35:30;-4.70;89.30
16032;DHT22;8120;48.308;8.914;2023-02-15T04:38:00;-4.70;88.40
16032;DHT22;8120;48.308;8.914;2023-02-15T04:40:27;-4.70;88.70
16032;DHT22;8120;48.308;8.914;2023-02-15T04:42:55;-4.60;89.50
16032;DHT22;8120;48.308;8.914;2023-02-15T04:45:23;-4.50;88.90
16032;DHT22;8120;48.308;8.914;2023-02-15T04:47:51;-4.50;88.90
16032;DHT22;8120;48.308;8.914;2023-02-15T04:50:19;-4.40;89.30
16032;DHT22;8120;48.308;8.914;2023-02-15T04:52:47;-4.30;89.50
16032;DHT22;8120;48.308;8.914;2023-02-15T04:55:16;-4.00;89.70
16032;DHT22;8120;48.308;8.914;2023-02-15T04:57:44;-4.00;87.80
16032;DHT22;8120;48.308;8.914;2023-02-15T05:00:13;-4.10;87.60
16032;DHT22;8120;48.308;8.914;2023-02-15T05:02:41;-4.30;86.70
16032;DHT22;8120;48.308;8.914;2023-02-15T05:05:09;-4.50;86.90
16032;DHT22;8120;48.308;8.914;2023-02-15T05:07:39;-4.60;86.60
16032;DHT22;8120;48.308;8.914;2023-02-15T05:10:08;-4.80;86.30
16032;DHT22;8120;48.308;8.914;2023-02-15T05:12:37;-5.00;86.40
16032;DHT22;8120;48.308;8.914;2023-02-15T05:15:05;-5.10;86.70
16032;DHT22;8120;48.308;8.914;2023-02-15T05:17:33;-5.10;87.70
16032;DHT22;8120;48.308;8.914;2023-02-15T05:20:01;-5.10;88.90
16032;DHT22;8120;48.308;8.914;2023-02-15T05:22:29;-5.00;89.90
16032;DHT22;8120;48.308;8.914;2023-02-15T05:24:57;-4.90;90.20
16032;DHT22;8120;48.308;8.914;2023-02-15T05:27:44;-4.80;90.30
16032;DHT22;8120;48.308;8.914;2023-02-15T05:30:31;-4.90;89.60
16032;DHT22;8120;48.308;8.914;2023-02-15T05:32:59;-4.80;89.80
16032;DHT22;8120;48.308;8.914;2023-02-15T05:35:26;-4.60;91.00
16032;DHT22;8120;48.308;8.914;2023-02-15T05:37:54;-4.30;90.00
16032;DHT22;8120;48.308;8.914;2023-02-15T05:40:22;-4.20;87.10
16032;DHT22;8120;48.308;8.914;2023-02-15T05:42:51;-4.20;86.00
16032;DHT22;8120;48.308;8.914;2023-02-15T05:45:19;-4.20;85.60
16032;DHT22;8120;48.308;8.914;2023-02-15T05:47:46;-4.30;84.90
16032;DHT22;8120;48.308;8.914;2023-02-15T05:50:15;-4.40;84.10
16032;DHT22;8120;48.308;8.914;2023-02-15T05:52:42;-4.60;84.70
16032;DHT22;8120;48.308;8.914;2023-02-15T05:55:10;-4.60;86.30
16032;DHT22;8120;48.308;8.914;2023-02-15T05:57:38;-4.60;85.60
16032;DHT22;8120;48.308;8.914;2023-02-15T06:00:09;-4.70;84.80
16032;DHT22;8120;48.308;8.914;2023-02-15T06:02:37;-4.80;85.00
16032;DHT22;8120;48.308;8.914;2023-02-15T06:05:06;-4.80;87.00
16032;DHT22;8120;48.308;8.914;2023-02-15T06:07:34;-4.80;86.60
16032;DHT22;8120;48.308;8.914;2023-02-15T06:10:02;-4.90;85.90
16032;DHT22;8120;48.308;8.914;2023-02-15T06:12:30;-5.00;85.60
16032;DHT22;8120;48.308;8.914;2023-02-15T06:14:58;-5.00;86.30
16032;DHT22;8120;48.308;8.914;2023-02-15T06:17:27;-5.00;86.70
16032;DHT22;8120;48.308;8.914;2023-02-15T06:19:55;-5.00;87.50
16032;DHT22;8120;48.308;8.914;2023-02-15T06:22:23;-5.00;87.80
16032;DHT22;8120;48.308;8.914;2023-02-15T06:24:50;-5.00;87.80
16032;DHT22;8120;48.308;8.914;2023-02-15T06:27:18;-5.00;87.60
16032;DHT22;8120;48.308;8.914;2023-02-15T06:29:46;-5.00;87.10
16032;DHT22;8120;48.308;8.914;2023-02-15T06:32:14;-5.00;87.40
16032;DHT22;8120;48.308;8.914;2023-02-15T06:34:43;-5.00;88.30
16032;DHT22;8120;48.308;8.914;2023-02-15T06:37:13;-4.80;90.50
16032;DHT22;8120;48.308;8.914;2023-02-15T06:39:41;-4.70;89.00
16032;DHT22;8120;48.308;8.914;2023-02-15T06:42:09;-4.70;87.50
16032;DHT22;8120;48.308;8.914;2023-02-15T06:44:37;-4.70;86.70
16032;DHT22;8120;48.308;8.914;2023-02-15T06:47:05;-4.60;86.80
16032;DHT22;8120;48.308;8.914;2023-02-15T06:49:32;-4.60;85.40
16032;DHT22;8120;48.308;8.914;2023-02-15T06:52:02;-4.70;85.00
16032;DHT22;8120;48.308;8.914;2023-02-15T06:54:30;-4.70;85.00
16032;DHT22;8120;48.308;8.914;2023-02-15T06:56:58;-4.90;85.00
16032;DHT22;8120;48.308;8.914;2023-02-15T06:59:26;-4.90;85.60
16032;DHT22;8120;48.308;8.914;2023-02-15T07:01:53;-4.90;85.50
16032;DHT22;8120;48.308;8.914;2023-02-15T07:04:21;-4.90;85.90
16032;DHT22;8120;48.308;8.914;2023-02-15T07:06:49;-4.90;85.40
16032;DHT22;8120;48.308;8.914;2023-02-15T07:09:21;-4.90;85.60
16032;DHT22;8120;48.308;8.914;2023-02-15T07:11:49;-4.80;86.40
16032;DHT22;8120;48.308;8.914;2023-02-15T07:14:34;-4.80;86.90
16032;DHT22;8120;48.308;8.914;2023-02-15T07:17:02;-4.60;87.50
16032;DHT22;8120;48.308;8.914;2023-02-15T07:19:30;-4.40;87.20
16032;DHT22;8120;48.308;8.914;2023-02-15T07:21:58;-4.20;86.60
16032;DHT22;8120;48.308;8.914;2023-02-15T07:24:27;-4.00;85.60
16032;DHT22;8120;48.308;8.914;2023-02-15T07:26:55;-3.80;85.10
16032;DHT22;8120;48.308;8.914;2023-02-15T07:29:24;-3.60;83.70
16032;DHT22;8120;48.308;8.914;2023-02-15T07:31:51;-3.50;83.00
16032;DHT22;8120;48.308;8.914;2023-02-15T07:34:19;-3.40;83.20
16032;DHT22;8120;48.308;8.914;2023-02-15T07:36:47;-3.20;83.60
16032;DHT22;8120;48.308;8.914;2023-02-15T07:39:17;-2.80;83.80
16032;DHT22;8120;48.308;8.914;2023-02-15T07:41:46;-2.60;81.50
16032;DHT22;8120;48.308;8.914;2023-02-15T07:44:15;-2.40;81.00
16032;DHT22;8120;48.308;8.914;2023-02-15T07:46:42;-2.30;79.70
16032;DHT22;8120;48.308;8.914;2023-02-15T07:49:10;-2.00;79.40
16032;DHT22;8120;48.308;8.914;2023-02-15T07:51:38;-1.70;78.10
16032;DHT22;8120;48.308;8.914;2023-02-15T07:54:07;-1.50;75.80
16032;DHT22;8120;48.308;8.914;2023-02-15T07:56:35;-1.00;74.40
16032;DHT22;8120;48.308;8.914;2023-02-15T07:59:04;-0.70;72.30
16032;DHT22;8120;48.308;8.914;2023-02-15T08:01:33;-0.40;71.90
16032;DHT22;8120;48.308;8.914;2023-02-15T08:04:03;-0.10;71.50
16032;DHT22;8120;48.308;8.914;2023-02-15T08:06:33;0.00;71.00
16032;DHT22;8120;48.308;8.914;2023-02-15T08:09:03;0.10;71.30
16032;DHT22;8120;48.308;8.914;2023-02-15T08:11:33;0.20;71.10
16032;DHT22;8120;48.308;8.914;2023-02-15T08:14:06;0.30;70.90
16032;DHT22;8120;48.308;8.914;2023-02-15T08:16:35;0.50;71.00
16032;DHT22;8120;48.308;8.914;2023-02-15T08:19:06;0.60;70.40
16032;DHT22;8120;48.308;8.914;2023-02-15T08:21:35;0.80;70.20
16032;DHT22;8120;48.308;8.914;2023-02-15T08:24:04;1.10;69.60
16032;DHT22;8120;48.308;8.914;2023-02-15T08:26:33;1.30;68.40
16032;DHT22;8120;48.308;8.914;2023-02-15T08:29:04;1.50;67.80
16032;DHT22;8120;48.308;8.914;2023-02-15T08:31:33;1.70;66.50
16032;DHT22;8120;48.308;8.914;2023-02-15T08:34:02;1.90;64.80
16032;DHT22;8120;48.308;8.914;2023-02-15T08:36:30;2.10;64.90
16032;DHT22;8120;48.308;8.914;2023-02-15T08:39:00;2.30;65.20
16032;DHT22;8120;48.308;8.914;2023-02-15T08:41:29;2.60;64.30
16032;DHT22;8120;48.308;8.914;2023-02-15T08:43:58;2.80;64.20
16032;DHT22;8120;48.308;8.914;2023-02-15T08:46:29;2.90;64.10
16032;DHT22;8120;48.308;8.914;2023-02-15T08:48:58;3.10;64.20
16032;DHT22;8120;48.308;8.914;2023-02-15T08:51:27;3.20;64.20
16032;DHT22;8120;48.308;8.914;2023-02-15T08:53:57;3.40;64.40
16032;DHT22;8120;48.308;8.914;2023-02-15T08:56:27;3.50;64.80
16032;DHT22;8120;48.308;8.914;2023-02-15T08:58:55;3.70;64.60
16032;DHT22;8120;48.308;8.914;2023-02-15T09:01:25;3.90;64.60
16032;DHT22;8120;48.308;8.914;2023-02-15T09:03:57;4.10;63.40
16032;DHT22;8120;48.308;8.914;2023-02-15T09:06:26;4.30;63.00
16032;DHT22;8120;48.308;8.914;2023-02-15T09:08:55;4.50;62.40
16032;DHT22;8120;48.308;8.914;2023-02-15T09:11:24;4.60;62.50
16032;DHT22;8120;48.308;8.914;2023-02-15T09:13:55;4.80;61.60
16032;DHT22;8120;48.308;8.914;2023-02-15T09:16:26;5.00;60.90
16032;DHT22;8120;48.308;8.914;2023-02-15T09:18:56;5.20;59.80
16032;DHT22;8120;48.308;8.914;2023-02-15T09:21:25;5.30;59.60
16032;DHT22;8120;48.308;8.914;2023-02-15T09:23:56;5.50;59.30
16032;DHT22;8120;48.308;8.914;2023-02-15T09:26:25;5.70;58.90
16032;DHT22;8120;48.308;8.914;2023-02-15T09:28:55;5.90;59.10
16032;DHT22;8120;48.308;8.914;2023-02-15T09:31:24;6.20;58.60
16032;DHT22;8120;48.308;8.914;2023-02-15T09:33:53;6.40;58.00
16032;DHT22;8120;48.308;8.914;2023-02-15T09:36:24;6.50;57.70
16032;DHT22;8120;48.308;8.914;2023-02-15T09:38:55;6.60;56.10
16032;DHT22;8120;48.308;8.914;2023-02-15T09:41:41;6.80;55.20
16032;DHT22;8120;48.308;8.914;2023-02-15T09:44:25;7.00;54.70
16032;DHT22;8120;48.308;8.914;2023-02-15T09:47:09;6.90;54.10
16032;DHT22;8120;48.308;8.914;2023-02-15T09:49:49;7.20;53.30
16032;DHT22;8120;48.308;8.914;2023-02-15T09:52:47;7.30;53.60
16032;DHT22;8120;48.308;8.914;2023-02-15T09:55:37;7.50;53.10
16032;DHT22;8120;48.308;8.914;2023-02-15T09:58:12;7.70;51.80
16032;DHT22;8120;48.308;8.914;2023-02-15T10:00:50;7.80;50.50
16032;DHT22;8120;48.308;8.914;2023-02-15T10:03:30;7.90;49.80
16032;DHT22;8120;48.308;8.914;2023-02-15T10:06:28;8.10;50.30
16032;DHT22;8120;48.308;8.914;2023-02-15T10:09:14;8.30;48.90
16032;DHT22;8120;48.308;8.914;2023-02-15T10:11:56;8.40;47.00
16032;DHT22;8120;48.308;8.914;2023-02-15T10:14:45;8.60;45.70
16032;DHT22;8120;48.308;8.914;2023-02-15T10:17:29;8.80;45.00
16032;DHT22;8120;48.308;8.914;2023-02-15T10:20:12;8.90;42.90
16032;DHT22;8120;48.308;8.914;2023-02-15T10:22:52;9.10;44.10
16032;DHT22;8120;48.308;8.914;2023-02-15T10:25:34;9.30;44.10
16032;DHT22;8120;48.308;8.914;2023-02-15T10:28:06;9.50;45.80
16032;DHT22;8120;48.308;8.914;2023-02-15T10:30:41;9.70;47.30
16032;DHT22;8120;48.308;8.914;2023-02-15T10:33:21;9.90;48.50
16032;DHT22;8120;48.308;8.914;2023-02-15T10:36:01;10.10;45.30
16032;DHT22;8120;48.308;8.914;2023-02-15T10:38:33;10.30;43.90
16032;DHT22;8120;48.308;8.914;2023-02-15T10:41:14;10.30;45.20
16032;DHT22;8120;48.308;8.914;2023-02-15T10:44:01;10.50;46.20
16032;DHT22;8120;48.308;8.914;2023-02-15T10:46:47;10.50;46.30
16032;DHT22;8120;48.308;8.914;2023-02-15T10:49:36;10.50;44.10
16032;DHT22;8120;48.308;8.914;2023-02-15T10:52:18;10.80;42.70
16032;DHT22;8120;48.308;8.914;2023-02-15T10:54:56;10.80;42.50
16032;DHT22;8120;48.308;8.914;2023-02-15T10:57:36;11.00;42.30
16032;DHT22;8120;48.308;8.914;2023-02-15T11:00:11;11.20;40.90
16032;DHT22;8120;48.308;8.914;2023-02-15T11:03:05;11.40;40.90
16032;DHT22;8120;48.308;8.914;2023-02-15T11:05:42;11.60;39.50
16032;DHT22;8120;48.308;8.914;2023-02-15T11:08:15;11.60;37.80
16032;DHT22;8120;48.308;8.914;2023-02-15T11:10:47;11.70;38.60
16032;DHT22;8120;48.308;8.914;2023-02-15T11:13:20;11.80;38.80
16032;DHT22;8120;48.308;8.914;2023-02-15T11:15:52;11.90;37.30
16032;DHT22;8120;48.308;8.914;2023-02-15T11:18:25;11.90;36.90
16032;DHT22;8120;48.308;8.914;2023-02-15T11:20:59;12.10;37.00
16032;DHT22;8120;48.308;8.914;2023-02-15T11:23:30;12.10;36.20
16032;DHT22;8120;48.308;8.914;2023-02-15T11:26:01;12.20;36.70
16032;DHT22;8120;48.308;8.914;2023-02-15T11:28:34;12.30;36.80
16032;DHT22;8120;48.308;8.914;2023-02-15T11:31:13;12.30;37.20
16032;DHT22;8120;48.308;8.914;2023-02-15T11:33:46;12.40;36.60
16032;DHT22;8120;48.308;8.914;2023-02-15T11:36:17;12.40;36.50
16032;DHT22;8120;48.308;8.914;2023-02-15T11:38:49;12.40;36.90
16032;DHT22;8120;48.308;8.914;2023-02-15T11:41:21;12.50;36.80
16032;DHT22;8120;48.308;8.914;2023-02-15T11:43:56;12.40;37.10
16032;DHT22;8120;48.308;8.914;2023-02-15T11:46:25;12.50;36.70
16032;DHT22;8120;48.308;8.914;2023-02-15T11:48:53;12.70;36.50
16032;DHT22;8120;48.308;8.914;2023-02-15T11:51:22;12.70;36.80
16032;DHT22;8120;48.308;8.914;2023-02-15T11:53:50;12.70;37.50
16032;DHT22;8120;48.308;8.914;2023-02-15T11:56:21;12.90;37.60
16032;DHT22;8120;48.308;8.914;2023-02-15T11:58:55;12.80;37.20
16032;DHT22;8120;48.308;8.914;2023-02-15T12:01:29;12.90;37.40
16032;DHT22;8120;48.308;8.914;2023-02-15T12:04:00;13.10;36.80
16032;DHT22;8120;48.308;8.914;2023-02-15T12:06:33;13.10;37.10
16032;DHT22;8120;48.308;8.914;2023-02-15T12:09:06;13.30;37.20
16032;DHT22;8120;48.308;8.914;2023-02-15T12:11:38;13.50;34.40
16032;DHT22;8120;48.308;8.914;2023-02-15T12:14:08;13.40;34.30
16032;DHT22;8120;48.308;8.914;2023-02-15T12:16:42;13.40;35.30
16032;DHT22;8120;48.308;8.914;2023-02-15T12:19:29;13.40;35.00
16032;DHT22;8120;48.308;8.914;2023-02-15T12:22:00;13.40;34.10
16032;DHT22;8120;48.308;8.914;2023-02-15T12:24:30;13.40;34.00
16032;DHT22;8120;48.308;8.914;2023-02-15T12:27:01;13.50;33.70
16032;DHT22;8120;48.308;8.914;2023-02-15T12:29:35;13.60;33.30
16032;DHT22;8120;48.308;8.914;2023-02-15T12:32:11;13.60;34.40
16032;DHT22;8120;48.308;8.914;2023-02-15T12:34:45;13.30;33.50
16032;DHT22;8120;48.308;8.914;2023-02-15T12:37:19;13.30;32.50
16032;DHT22;8120;48.308;8.914;2023-02-15T12:39:54;13.20;33.00
16032;DHT22;8120;48.308;8.914;2023-02-15T12:42:22;13.30;32.10
16032;DHT22;8120;48.308;8.914;2023-02-15T12:44:58;13.20;32.40
16032;DHT22;8120;48.308;8.914;2023-02-15T12:47:27;13.40;33.00
16032;DHT22;8120;48.308;8.914;2023-02-15T12:50:12;13.50;32.50
16032;DHT22;8120;48.308;8.914;2023-02-15T12:52:45;13.80;32.30
16032;DHT22;8120;48.308;8.914;2023-02-15T12:55:23;13.80;32.10
16032;DHT22;8120;48.308;8.914;2023-02-15T12:58:12;13.70;32.80
16032;DHT22;8120;48.308;8.914;2023-02-15T13:00:45;13.70;32.60
16032;DHT22;8120;48.308;8.914;2023-02-15T13:03:18;13.80;32.90
16032;DHT22;8120;48.308;8.914;2023-02-15T13:05:48;13.70;31.90
16032;DHT22;8120;48.308;8.914;2023-02-15T13:08:20;13.60;31.20
16032;DHT22;8120;48.308;8.914;2023-02-15T13:10:54;13.50;31.80
16032;DHT22;8120;48.308;8.914;2023-02-15T13:13:26;13.70;31.70
16032;DHT22;8120;48.308;8.914;2023-02-15T13:15:58;13.80;32.30
16032;DHT22;8120;48.308;8.914;2023-02-15T13:18:31;13.90;31.50
16032;DHT22;8120;48.308;8.914;2023-02-15T13:21:06;13.90;31.50
16032;DHT22;8120;48.308;8.914;2023-02-15T13:23:37;14.00;31.70
16032;DHT22;8120;48.308;8.914;2023-02-15T13:26:12;14.00;31.40
16032;DHT22;8120;48.308;8.914;2023-02-15T13:28:45;14.00;31.60
16032;DHT22;8120;48.308;8.914;2023-02-15T13:31:18;14.20;31.80
16032;DHT22;8120;48.308;8.914;2023-02-15T13:33:50;14.00;32.10
16032;DHT22;8120;48.308;8.914;2023-02-15T13:36:23;14.00;32.50
16032;DHT22;8120;48.308;8.914;2023-02-15T13:39:01;14.20;32.00
16032;DHT22;8120;48.308;8.914;2023-02-15T13:41:33;14.20;32.00
16032;DHT22;8120;48.308;8.914;2023-02-15T13:44:12;14.00;31.60
16032;DHT22;8120;48.308;8.914;2023-02-15T13:46:52;14.00;32.10
16032;DHT22;8120;48.308;8.914;2023-02-15T13:49:32;14.00;32.30
16032;DHT22;8120;48.308;8.914;2023-02-15T13:52:12;14.00;32.10
16032;DHT22;8120;48.308;8.914;2023-02-15T13:57:47;14.10;32.10
16032;DHT22;8120;48.308;8.914;2023-02-15T14:00:22;14.10;31.10
16032;DHT22;8120;48.308;8.914;2023-02-15T14:03:12;14.10;31.40
16032;DHT22;8120;48.308;8.914;2023-02-15T14:05:58;14.10;31.30
16032;DHT22;8120;48.308;8.914;2023-02-15T14:08:43;14.20;30.90
16032;DHT22;8120;48.308;8.914;2023-02-15T14:11:19;14.20;31.20
16032;DHT22;8120;48.308;8.914;2023-02-15T14:14:11;14.20;31.50
16032;DHT22;8120;48.308;8.914;2023-02-15T14:16:48;14.20;32.20
16032;DHT22;8120;48.308;8.914;2023-02-15T14:19:36;14.10;31.20
16032;DHT22;8120;48.308;8.914;2023-02-15T14:22:12;14.10;31.70
16032;DHT22;8120;48.308;8.914;2023-02-15T14:24:45;14.20;32.40
16032;DHT22;8120;48.308;8.914;2023-02-15T14:27:22;14.20;32.40
16032;DHT22;8120;48.308;8.914;2023-02-15T14:29:56;14.10;32.20
16032;DHT22;8120;48.308;8.914;2023-02-15T14:32:28;14.10;32.30
16032;DHT22;8120;48.308;8.914;2023-02-15T14:35:01;14.00;32.00
16032;DHT22;8120;48.308;8.914;2023-02-15T14:37:41;14.00;32.70
16032;DHT22;8120;48.308;8.914;2023-02-15T14:40:17;13.90;32.60
16032;DHT22;8120;48.308;8.914;2023-02-15T14:43:09;14.00;31.80
16032;DHT22;8120;48.308;8.914;2023-02-15T14:45:50;14.10;31.80
16032;DHT22;8120;48.308;8.914;2023-02-15T14:48:25;14.00;31.30
16032;DHT22;8120;48.308;8.914;2023-02-15T14:50:58;13.80;31.80
16032;DHT22;8120;48.308;8.914;2023-02-15T14:53:37;13.70;31.90
16032;DHT22;8120;48.308;8.914;2023-02-15T14:56:12;13.60;32.20
16032;DHT22;8120;48.308;8.914;2023-02-15T14:58:56;13.70;33.60
16032;DHT22;8120;48.308;8.914;2023-02-15T15:01:26;13.50;35.50
16032;DHT22;8120;48.308;8.914;2023-02-15T15:03:58;13.50;35.40
16032;DHT22;8120;48.308;8.914;2023-02-15T15:06:29;13.40;36.40
16032;DHT22;8120;48.308;8.914;2023-02-15T15:09:00;13.50;36.80
16032;DHT22;8120;48.308;8.914;2023-02-15T15:11:47;13.40;37.50
16032;DHT22;8120;48.308;8.914;2023-02-15T15:14:37;13.30;37.80
16032;DHT22;8120;48.308;8.914;2023-02-15T15:17:08;13.20;38.30
16032;DHT22;8120;48.308;8.914;2023-02-15T15:19:58;13.10;38.50
16032;DHT22;8120;48.308;8.914;2023-02-15T15:22:28;13.10;37.90
16032;DHT22;8120;48.308;8.914;2023-02-15T15:24:57;13.00;38.20
16032;DHT22;8120;48.308;8.914;2023-02-15T15:27:53;12.80;38.20
16032;DHT22;8120;48.308;8.914;2023-02-15T15:30:48;12.70;38.20
16032;DHT22;8120;48.308;8.914;2023-02-15T15:33:46;12.60;38.40
16032;DHT22;8120;48.308;8.914;2023-02-15T15:36:41;12.60;38.30
16032;DHT22;8120;48.308;8.914;2023-02-15T15:39:27;12.40;38.30
16032;DHT22;8120;48.308;8.914;2023-02-15T15:42:04;12.30;38.40
16032;DHT22;8120;48.308;8.914;2023-02-15T15:45:04;12.20;38.50
16032;DHT22;8120;48.308;8.914;2023-02-15T15:47:49;12.10;38.70
16032;DHT22;8120;48.308;8.914;2023-02-15T15:50:33;12.00;38.80
16032;DHT22;8120;48.308;8.914;2023-02-15T15:53:02;12.00;38.70
16032;DHT22;8120;48.308;8.914;2023-02-15T15:55:33;11.90;39.20
16032;DHT22;8120;48.308;8.914;2023-02-15T15:58:03;11.80;40.30
16032;DHT22;8120;48.308;8.914;2023-02-15T16:00:35;11.60;40.80
16032;DHT22;8120;48.308;8.914;2023-02-15T16:03:05;11.40;40.80
16032;DHT22;8120;48.308;8.914;2023-02-15T16:05:40;11.40;40.90
16032;DHT22;8120;48.308;8.914;2023-02-15T16:08:08;11.40;41.20
16032;DHT22;8120;48.308;8.914;2023-02-15T16:10:37;11.40;41.40
16032;DHT22;8120;48.308;8.914;2023-02-15T16:13:06;11.30;41.70
16032;DHT22;8120;48.308;8.914;2023-02-15T16:15:36;11.00;42.20
16032;DHT22;8120;48.308;8.914;2023-02-15T16:18:14;10.80;42.80
16032;DHT22;8120;48.308;8.914;2023-02-15T16:20:49;10.60;43.30
16032;DHT22;8120;48.308;8.914;2023-02-15T16:23:50;10.50;43.40
16032;DHT22;8120;48.308;8.914;2023-02-15T16:26:42;10.30;43.90
16032;DHT22;8120;48.308;8.914;2023-02-15T16:29:15;10.20;44.60
16032;DHT22;8120;48.308;8.914;2023-02-15T16:31:43;10.00;45.00
16032;DHT22;8120;48.308;8.914;2023-02-15T16:34:23;9.70;46.50